sensor_id;sensor_type;location;lat;lon;timestamp;temperature;humidity
10437;DHT22;5265;50.006;9.202;2022-08-01T00:01:51;20.60;99.90
10437;DHT22;5265;50.006;9.202;2022-08-01T00:04:18;20.60;99.90
10437;DHT22;5265;50.006;9.202;2022-08-01T00:06:47;20.60;99.90
10437;DHT22;5265;50.006;9.202;2022-08-01T00:09:14;20.50;99.90
10437;DHT22;5265;50.006;9.202;2022-08-01T00:11:41;20.50;99.90
10437;DHT22;5265;50.006;9.202;2022-08-01T00:14:08;20.50;99.90
10437;DHT22;5265;50.006;9.202;2022-08-01T00:16:36;20.40;99.90
10437;DHT22;5265;50.006;9.202;2022-08-01T00:19:03;20.30;99.90
10437;DHT22;5265;50.006;9.202;2022-08-01T00:21:30;20.30;99.90
10437;DHT22;5265;50.006;9.202;2022-08-01T00:23:59;20.20;99.90
10437;DHT22;5265;50.006;9.202;2022-08-01T00:26:26;20.10;99.90
10437;DHT22;5265;50.006;9.202;2022-08-01T00:28:53;20.00;99.90
10437;DHT22;5265;50.006;9.202;2022-08-01T00:31:20;20.10;99.90
10437;DHT22;5265;50.006;9.202;2022-08-01T00:33:47;20.00;99.90
10437;DHT22;5265;50.006;9.202;2022-08-01T00:36:14;20.00;99.90
10437;DHT22;5265;50.006;9.202;2022-08-01T00:38:41;19.90;99.90
10437;DHT22;5265;50.006;9.202;2022-08-01T00:41:09;19.90;99.90
10437;DHT22;5265;50.006;9.202;2022-08-01T00:43:37;19.80;99.90
10437;DHT22;5265;50.006;9.202;2022-08-01T00:46:04;19.80;99.90
10437;DHT22;5265;50.006;9.202;2022-08-01T00:48:31;19.70;99.90
10437;DHT22;5265;50.006;9.202;2022-08-01T00:50:58;19.60;99.90
10437;DHT22;5265;50.006;9.202;2022-08-01T00:53:25;19.60;99.90
10437;DHT22;5265;50.006;9.202;2022-08-01T00:55:53;19.60;99.90
10437;DHT22;5265;50.006;9.202;2022-08-01T00:58:21;19.60;99.90
10437;DHT22;5265;50.006;9.202;2022-08-01T01:00:49;19.50;99.90
10437;DHT22;5265;50.006;9.202;2022-08-01T01:03:16;19.50;99.90
10437;DHT22;5265;50.006;9.202;2022-08-01T01:05:45;19.50;99.90
10437;DHT22;5265;50.006;9.202;2022-08-01T01:08:16;19.50;99.90
10437;DHT22;5265;50.006;9.202;2022-08-01T01:10:47;19.40;99.90
10437;DHT22;5265;50.006;9.202;2022-08-01T01:13:18;19.50;99.90
10437;DHT22;5265;50.006;9.202;2022-08-01T01:15:49;19.40;99.90
10437;DHT22;5265;50.006;9.202;2022-08-01T01:18:20;19.40;99.90
10437;DHT22;5265;50.006;9.202;2022-08-01T01:21:00;19.30;99.90
10437;DHT22;5265;50.006;9.202;2022-08-01T01:23:38;19.20;99.90
10437;DHT22;5265;50.006;9.202;2022-08-01T01:26:12;19.20;99.90
10437;DHT22;5265;50.006;9.202;2022-08-01T01:28:51;19.20;99.90
10437;DHT22;5265;50.006;9.202;2022-08-01T01:31:20;19.20;99.90
10437;DHT22;5265;50.006;9.202;2022-08-01T01:33:47;19.20;99.90
10437;DHT22;5265;50.006;9.202;2022-08-01T01:36:15;19.10;99.90
10437;DHT22;5265;50.006;9.202;2022-08-01T01:38:44;19.20;99.90
10437;DHT22;5265;50.006;9.202;2022-08-01T01:41:12;19.20;99.90
10437;DHT22;5265;50.006;9.202;2022-08-01T01:43:40;19.10;99.90
10437;DHT22;5265;50.006;9.202;2022-08-01T01:46:11;19.10;99.90
10437;DHT22;5265;50.006;9.202;2022-08-01T01:48:39;19.00;99.90
10437;DHT22;5265;50.006;9.202;2022-08-01T01:51:07;19.00;99.90
10437;DHT22;5265;50.006;9.202;2022-08-01T01:53:34;18.90;99.90
10437;DHT22;5265;50.006;9.202;2022-08-01T01:56:02;18.90;99.90
10437;DHT22;5265;50.006;9.202;2022-08-01T01:58:30;18.90;99.90
10437;DHT22;5265;50.006;9.202;2022-08-01T02:00:58;18.90;99.90
10437;DHT22;5265;50.006;9.202;2022-08-01T02:03:28;18.90;99.90
10437;DHT22;5265;50.006;9.202;2022-08-01T02:05:56;18.90;99.90
10437;DHT22;5265;50.006;9.202;2022-08-01T02:08:24;18.90;99.90
10437;DHT22;5265;50.006;9.202;2022-08-01T02:10:53;19.00;99.90
10437;DHT22;5265;50.006;9.202;2022-08-01T02:13:38;19.00;99.90
10437;DHT22;5265;50.006;9.202;2022-08-01T02:16:05;19.00;99.90
10437;DHT22;5265;50.006;9.202;2022-08-01T02:18:35;19.00;99.90
10437;DHT22;5265;50.006;9.202;2022-08-01T02:21:02;19.00;99.90
10437;DHT22;5265;50.006;9.202;2022-08-01T02:23:31;19.00;99.90
10437;DHT22;5265;50.006;9.202;2022-08-01T02:25:59;19.00;99.90
10437;DHT22;5265;50.006;9.202;2022-08-01T02:28:29;19.10;99.90
10437;DHT22;5265;50.006;9.202;2022-08-01T02:31:00;19.10;99.90
10437;DHT22;5265;50.006;9.202;2022-08-01T02:33:29;19.10;99.90
10437;DHT22;5265;50.006;9.202;2022-08-01T02:36:01;19.10;99.90
10437;DHT22;5265;50.006;9.202;2022-08-01T02:38:30;19.10;99.90
10437;DHT22;5265;50.006;9.202;2022-08-01T02:40:59;19.10;99.90
10437;DHT22;5265;50.006;9.202;2022-08-01T02:43:28;19.10;99.90
10437;DHT22;5265;50.006;9.202;2022-08-01T02:45:59;19.00;99.90
10437;DHT22;5265;50.006;9.202;2022-08-01T02:48:27;19.00;99.90
10437;DHT22;5265;50.006;9.202;2022-08-01T02:50:56;19.00;99.90
10437;DHT22;5265;50.006;9.202;2022-08-01T02:53:25;19.10;99.90
10437;DHT22;5265;50.006;9.202;2022-08-01T02:55:54;19.10;99.90
10437;DHT22;5265;50.006;9.202;2022-08-01T02:58:21;19.10;99.90
10437;DHT22;5265;50.006;9.202;2022-08-01T03:00:50;19.00;99.90
10437;DHT22;5265;50.006;9.202;2022-08-01T03:03:17;19.00;99.90
10437;DHT22;5265;50.006;9.202;2022-08-01T03:05:45;19.10;99.90
10437;DHT22;5265;50.006;9.202;2022-08-01T03:08:14;19.10;99.90
10437;DHT22;5265;50.006;9.202;2022-08-01T03:10:45;19.10;99.90
10437;DHT22;5265;50.006;9.202;2022-08-01T03:13:12;19.10;99.90
10437;DHT22;5265;50.006;9.202;2022-08-01T03:15:40;19.10;99.90
10437;DHT22;5265;50.006;9.202;2022-08-01T03:18:09;19.10;99.90
10437;DHT22;5265;50.006;9.202;2022-08-01T03:20:37;19.10;99.90
10437;DHT22;5265;50.006;9.202;2022-08-01T03:23:05;19.10;99.90
10437;DHT22;5265;50.006;9.202;2022-08-01T03:25:34;19.20;99.90
10437;DHT22;5265;50.006;9.202;2022-08-01T03:28:04;19.20;99.90
10437;DHT22;5265;50.006;9.202;2022-08-01T03:30:32;19.30;99.90
10437;DHT22;5265;50.006;9.202;2022-08-01T03:33:01;19.50;99.90
10437;DHT22;5265;50.006;9.202;2022-08-01T03:35:29;19.60;99.90
10437;DHT22;5265;50.006;9.202;2022-08-01T03:37:57;19.70;99.90
10437;DHT22;5265;50.006;9.202;2022-08-01T03:40:28;19.80;99.90
10437;DHT22;5265;50.006;9.202;2022-08-01T03:42:59;20.00;99.90
10437;DHT22;5265;50.006;9.202;2022-08-01T03:45:30;20.10;99.90
10437;DHT22;5265;50.006;9.202;2022-08-01T03:47:59;20.00;99.90
10437;DHT22;5265;50.006;9.202;2022-08-01T03:50:26;20.00;99.90
10437;DHT22;5265;50.006;9.202;2022-08-01T03:52:54;20.00;99.90
10437;DHT22;5265;50.006;9.202;2022-08-01T03:55:24;20.10;99.90
10437;DHT22;5265;50.006;9.202;2022-08-01T03:57:52;20.00;99.90
10437;DHT22;5265;50.006;9.202;2022-08-01T04:00:19;20.10;99.90
10437;DHT22;5265;50.006;9.202;2022-08-01T04:02:48;20.20;99.90
10437;DHT22;5265;50.006;9.202;2022-08-01T04:05:16;20.10;99.90
10437;DHT22;5265;50.006;9.202;2022-08-01T04:07:45;20.10;99.90
10437;DHT22;5265;50.006;9.202;2022-08-01T04:10:12;20.20;99.90
10437;DHT22;5265;50.006;9.202;2022-08-01T04:12:39;20.20;99.90
10437;DHT22;5265;50.006;9.202;2022-08-01T04:15:07;20.30;99.90
10437;DHT22;5265;50.006;9.202;2022-08-01T04:17:34;20.20;99.90
10437;DHT22;5265;50.006;9.202;2022-08-01T04:20:03;20.30;99.90
10437;DHT22;5265;50.006;9.202;2022-08-01T04:22:30;20.20;99.90
10437;DHT22;5265;50.006;9.202;2022-08-01T04:24:57;20.30;99.90
10437;DHT22;5265;50.006;9.202;2022-08-01T04:27:26;20.00;99.90
10437;DHT22;5265;50.006;9.202;2022-08-01T04:29:56;20.30;99.90
10437;DHT22;5265;50.006;9.202;2022-08-01T04:32:24;20.30;99.90
10437;DHT22;5265;50.006;9.202;2022-08-01T04:34:52;20.20;99.90
10437;DHT22;5265;50.006;9.202;2022-08-01T04:37:23;20.20;99.90
10437;DHT22;5265;50.006;9.202;2022-08-01T04:39:52;20.30;99.90
10437;DHT22;5265;50.006;9.202;2022-08-01T04:42:19;20.30;99.90
10437;DHT22;5265;50.006;9.202;2022-08-01T04:44:46;20.30;99.90
10437;DHT22;5265;50.006;9.202;2022-08-01T04:47:14;20.40;99.90
10437;DHT22;5265;50.006;9.202;2022-08-01T04:49:41;20.40;99.90
10437;DHT22;5265;50.006;9.202;2022-08-01T04:52:08;20.30;99.90
10437;DHT22;5265;50.006;9.202;2022-08-01T04:54:37;20.40;99.90
10437;DHT22;5265;50.006;9.202;2022-08-01T04:57:04;20.40;99.90
10437;DHT22;5265;50.006;9.202;2022-08-01T04:59:32;20.50;99.90
10437;DHT22;5265;50.006;9.202;2022-08-01T05:02:09;20.50;99.90
10437;DHT22;5265;50.006;9.202;2022-08-01T05:04:36;20.40;99.90
10437;DHT22;5265;50.006;9.202;2022-08-01T05:07:04;20.60;99.90
10437;DHT22;5265;50.006;9.202;2022-08-01T05:09:31;21.10;99.90
10437;DHT22;5265;50.006;9.202;2022-08-01T05:12:00;20.80;99.90
10437;DHT22;5265;50.006;9.202;2022-08-01T05:14:27;20.70;99.90
10437;DHT22;5265;50.006;9.202;2022-08-01T05:16:57;20.50;99.90
10437;DHT22;5265;50.006;9.202;2022-08-01T05:19:25;20.80;99.90
10437;DHT22;5265;50.006;9.202;2022-08-01T05:21:53;20.70;99.90
10437;DHT22;5265;50.006;9.202;2022-08-01T05:24:20;20.70;99.90
10437;DHT22;5265;50.006;9.202;2022-08-01T05:26:48;20.50;99.90
10437;DHT22;5265;50.006;9.202;2022-08-01T05:29:16;20.90;99.90
10437;DHT22;5265;50.006;9.202;2022-08-01T05:31:43;20.90;99.90
10437;DHT22;5265;50.006;9.202;2022-08-01T05:34:11;21.10;99.90
10437;DHT22;5265;50.006;9.202;2022-08-01T05:36:38;21.00;99.90
10437;DHT22;5265;50.006;9.202;2022-08-01T05:39:05;20.90;99.90
10437;DHT22;5265;50.006;9.202;2022-08-01T05:41:32;20.90;99.90
10437;DHT22;5265;50.006;9.202;2022-08-01T05:43:59;20.90;99.90
10437;DHT22;5265;50.006;9.202;2022-08-01T05:46:28;20.90;99.90
10437;DHT22;5265;50.006;9.202;2022-08-01T05:48:56;21.00;99.90
10437;DHT22;5265;50.006;9.202;2022-08-01T05:51:24;21.00;99.90
10437;DHT22;5265;50.006;9.202;2022-08-01T05:53:51;20.90;99.90
10437;DHT22;5265;50.006;9.202;2022-08-01T05:56:19;20.90;99.90
10437;DHT22;5265;50.006;9.202;2022-08-01T05:58:46;20.90;99.90
10437;DHT22;5265;50.006;9.202;2022-08-01T06:01:13;21.20;99.90
10437;DHT22;5265;50.006;9.202;2022-08-01T06:03:41;21.20;99.90
10437;DHT22;5265;50.006;9.202;2022-08-01T06:06:09;21.20;99.90
10437;DHT22;5265;50.006;9.202;2022-08-01T06:08:36;21.30;99.90
10437;DHT22;5265;50.006;9.202;2022-08-01T06:11:03;21.50;99.90
10437;DHT22;5265;50.006;9.202;2022-08-01T06:13:30;21.70;99.90
10437;DHT22;5265;50.006;9.202;2022-08-01T06:15:57;21.50;99.90
10437;DHT22;5265;50.006;9.202;2022-08-01T06:18:24;21.40;99.90
10437;DHT22;5265;50.006;9.202;2022-08-01T06:20:53;21.40;99.90
10437;DHT22;5265;50.006;9.202;2022-08-01T06:23:20;21.60;99.90
10437;DHT22;5265;50.006;9.202;2022-08-01T06:25:47;21.60;99.90
10437;DHT22;5265;50.006;9.202;2022-08-01T06:28:14;21.40;99.90
10437;DHT22;5265;50.006;9.202;2022-08-01T06:30:42;21.60;99.90
10437;DHT22;5265;50.006;9.202;2022-08-01T06:33:09;22.10;99.90
10437;DHT22;5265;50.006;9.202;2022-08-01T06:35:36;22.10;99.90
10437;DHT22;5265;50.006;9.202;2022-08-01T06:38:05;22.10;99.90
10437;DHT22;5265;50.006;9.202;2022-08-01T06:40:32;23.10;99.90
10437;DHT22;5265;50.006;9.202;2022-08-01T06:42:59;22.00;99.90
10437;DHT22;5265;50.006;9.202;2022-08-01T06:45:26;22.10;99.90
10437;DHT22;5265;50.006;9.202;2022-08-01T06:47:53;22.10;99.90
10437;DHT22;5265;50.006;9.202;2022-08-01T06:50:21;22.00;99.90
10437;DHT22;5265;50.006;9.202;2022-08-01T06:52:47;22.00;99.90
10437;DHT22;5265;50.006;9.202;2022-08-01T06:55:16;22.20;99.90
10437;DHT22;5265;50.006;9.202;2022-08-01T06:57:46;22.30;99.90
10437;DHT22;5265;50.006;9.202;2022-08-01T07:00:14;22.10;99.90
10437;DHT22;5265;50.006;9.202;2022-08-01T07:02:44;21.90;99.90
10437;DHT22;5265;50.006;9.202;2022-08-01T07:05:11;22.20;99.90
10437;DHT22;5265;50.006;9.202;2022-08-01T07:07:38;22.00;99.90
10437;DHT22;5265;50.006;9.202;2022-08-01T07:10:05;22.10;99.90
10437;DHT22;5265;50.006;9.202;2022-08-01T07:12:35;22.00;99.90
10437;DHT22;5265;50.006;9.202;2022-08-01T07:15:04;21.90;99.90
10437;DHT22;5265;50.006;9.202;2022-08-01T07:17:31;21.80;99.90
10437;DHT22;5265;50.006;9.202;2022-08-01T07:19:58;21.70;99.90
10437;DHT22;5265;50.006;9.202;2022-08-01T07:22:25;21.80;99.90
10437;DHT22;5265;50.006;9.202;2022-08-01T07:24:53;21.70;99.90
10437;DHT22;5265;50.006;9.202;2022-08-01T07:27:19;21.70;99.90
10437;DHT22;5265;50.006;9.202;2022-08-01T07:29:48;21.50;99.90
10437;DHT22;5265;50.006;9.202;2022-08-01T07:32:15;21.50;99.90
10437;DHT22;5265;50.006;9.202;2022-08-01T07:34:42;21.60;99.90
10437;DHT22;5265;50.006;9.202;2022-08-01T07:37:09;21.80;99.90
10437;DHT22;5265;50.006;9.202;2022-08-01T07:39:36;22.00;99.90
10437;DHT22;5265;50.006;9.202;2022-08-01T07:42:04;22.20;99.90
10437;DHT22;5265;50.006;9.202;2022-08-01T07:44:31;22.30;99.90
10437;DHT22;5265;50.006;9.202;2022-08-01T07:46:59;22.50;99.90
10437;DHT22;5265;50.006;9.202;2022-08-01T07:49:26;22.80;99.90
10437;DHT22;5265;50.006;9.202;2022-08-01T07:51:53;22.60;99.90
10437;DHT22;5265;50.006;9.202;2022-08-01T07:54:21;22.60;99.90
10437;DHT22;5265;50.006;9.202;2022-08-01T07:56:49;22.50;99.90
10437;DHT22;5265;50.006;9.202;2022-08-01T07:59:16;22.50;99.90
10437;DHT22;5265;50.006;9.202;2022-08-01T08:01:48;22.50;99.90
10437;DHT22;5265;50.006;9.202;2022-08-01T08:04:17;22.60;99.90
10437;DHT22;5265;50.006;9.202;2022-08-01T08:06:44;22.60;99.90
10437;DHT22;5265;50.006;9.202;2022-08-01T08:09:13;22.60;99.90
10437;DHT22;5265;50.006;9.202;2022-08-01T08:11:41;22.40;99.90
10437;DHT22;5265;50.006;9.202;2022-08-01T08:14:09;23.30;99.90
10437;DHT22;5265;50.006;9.202;2022-08-01T08:16:36;22.80;99.90
10437;DHT22;5265;50.006;9.202;2022-08-01T08:19:03;22.40;99.90
10437;DHT22;5265;50.006;9.202;2022-08-01T08:21:31;22.50;99.90
10437;DHT22;5265;50.006;9.202;2022-08-01T08:23:58;22.50;99.90
10437;DHT22;5265;50.006;9.202;2022-08-01T08:26:49;22.50;99.90
10437;DHT22;5265;50.006;9.202;2022-08-01T08:29:15;23.50;99.90
10437;DHT22;5265;50.006;9.202;2022-08-01T08:31:43;23.00;99.90
10437;DHT22;5265;50.006;9.202;2022-08-01T08:34:09;22.80;99.90
10437;DHT22;5265;50.006;9.202;2022-08-01T08:36:38;22.60;99.90
10437;DHT22;5265;50.006;9.202;2022-08-01T08:39:05;22.60;99.90
10437;DHT22;5265;50.006;9.202;2022-08-01T08:41:32;22.70;99.90
10437;DHT22;5265;50.006;9.202;2022-08-01T08:44:00;22.90;99.90
10437;DHT22;5265;50.006;9.202;2022-08-01T08:46:27;22.90;99.90
10437;DHT22;5265;50.006;9.202;2022-08-01T08:48:55;23.00;99.90
10437;DHT22;5265;50.006;9.202;2022-08-01T08:51:23;23.40;99.90
10437;DHT22;5265;50.006;9.202;2022-08-01T08:53:54;23.60;99.90
10437;DHT22;5265;50.006;9.202;2022-08-01T08:56:22;22.80;99.90
10437;DHT22;5265;50.006;9.202;2022-08-01T08:58:50;23.80;99.90
10437;DHT22;5265;50.006;9.202;2022-08-01T09:03:46;25.10;99.90
10437;DHT22;5265;50.006;9.202;2022-08-01T09:06:14;24.20;99.90
10437;DHT22;5265;50.006;9.202;2022-08-01T09:08:41;24.40;99.90
10437;DHT22;5265;50.006;9.202;2022-08-01T09:11:09;24.50;99.90
10437;DHT22;5265;50.006;9.202;2022-08-01T09:16:05;24.20;99.90
10437;DHT22;5265;50.006;9.202;2022-08-01T09:18:33;24.20;99.90
10437;DHT22;5265;50.006;9.202;2022-08-01T09:21:07;24.20;99.90
10437;DHT22;5265;50.006;9.202;2022-08-01T09:23:35;24.50;99.90
10437;DHT22;5265;50.006;9.202;2022-08-01T09:26:05;24.50;99.90
10437;DHT22;5265;50.006;9.202;2022-08-01T09:28:33;24.40;99.90
10437;DHT22;5265;50.006;9.202;2022-08-01T09:31:05;24.40;99.90
10437;DHT22;5265;50.006;9.202;2022-08-01T09:33:46;24.50;99.90
10437;DHT22;5265;50.006;9.202;2022-08-01T09:36:13;24.50;99.90
10437;DHT22;5265;50.006;9.202;2022-08-01T09:38:40;24.50;99.90
10437;DHT22;5265;50.006;9.202;2022-08-01T09:41:07;24.30;99.90
10437;DHT22;5265;50.006;9.202;2022-08-01T09:43:36;24.50;99.90
10437;DHT22;5265;50.006;9.202;2022-08-01T09:46:04;24.50;99.90
10437;DHT22;5265;50.006;9.202;2022-08-01T09:48:31;24.50;99.90
10437;DHT22;5265;50.006;9.202;2022-08-01T09:50:58;24.80;99.90
10437;DHT22;5265;50.006;9.202;2022-08-01T09:53:26;24.40;99.90
10437;DHT22;5265;50.006;9.202;2022-08-01T09:55:55;24.60;99.90
10437;DHT22;5265;50.006;9.202;2022-08-01T10:01:04;24.50;99.90
10437;DHT22;5265;50.006;9.202;2022-08-01T10:03:33;24.70;99.90
10437;DHT22;5265;50.006;9.202;2022-08-01T10:08:28;24.50;99.90
10437;DHT22;5265;50.006;9.202;2022-08-01T10:11:12;24.40;99.90
10437;DHT22;5265;50.006;9.202;2022-08-01T10:13:39;24.70;99.90
10437;DHT22;5265;50.006;9.202;2022-08-01T10:18:36;25.20;99.90
10437;DHT22;5265;50.006;9.202;2022-08-01T10:21:05;24.90;99.90
10437;DHT22;5265;50.006;9.202;2022-08-01T10:23:33;24.80;99.90
10437;DHT22;5265;50.006;9.202;2022-08-01T10:26:01;24.90;99.90
10437;DHT22;5265;50.006;9.202;2022-08-01T10:28:30;25.10;99.90
10437;DHT22;5265;50.006;9.202;2022-08-01T10:30:57;25.30;99.90
10437;DHT22;5265;50.006;9.202;2022-08-01T10:33:24;25.00;99.90
10437;DHT22;5265;50.006;9.202;2022-08-01T10:35:53;24.80;99.90
10437;DHT22;5265;50.006;9.202;2022-08-01T10:38:20;25.10;99.90
10437;DHT22;5265;50.006;9.202;2022-08-01T10:40:49;25.40;99.90
10437;DHT22;5265;50.006;9.202;2022-08-01T10:43:17;25.90;99.90
10437;DHT22;5265;50.006;9.202;2022-08-01T10:45:44;26.10;99.90
10437;DHT22;5265;50.006;9.202;2022-08-01T10:48:12;26.50;99.90
10437;DHT22;5265;50.006;9.202;2022-08-01T10:50:42;26.50;99.90
10437;DHT22;5265;50.006;9.202;2022-08-01T10:53:13;26.10;99.90
10437;DHT22;5265;50.006;9.202;2022-08-01T10:55:50;25.90;99.90
10437;DHT22;5265;50.006;9.202;2022-08-01T10:58:24;25.90;99.90
10437;DHT22;5265;50.006;9.202;2022-08-01T11:03:44;26.40;99.90
10437;DHT22;5265;50.006;9.202;2022-08-01T11:06:15;25.90;99.90
10437;DHT22;5265;50.006;9.202;2022-08-01T11:08:44;25.80;99.90
10437;DHT22;5265;50.006;9.202;2022-08-01T11:11:18;25.60;99.90
10437;DHT22;5265;50.006;9.202;2022-08-01T11:14:01;25.70;99.90
10437;DHT22;5265;50.006;9.202;2022-08-01T11:16:33;25.70;99.90
10437;DHT22;5265;50.006;9.202;2022-08-01T11:19:00;25.70;99.90
10437;DHT22;5265;50.006;9.202;2022-08-01T11:24:11;25.70;99.90
10437;DHT22;5265;50.006;9.202;2022-08-01T11:26:38;25.50;99.90
10437;DHT22;5265;50.006;9.202;2022-08-01T11:29:15;25.60;99.90
10437;DHT22;5265;50.006;9.202;2022-08-01T11:31:44;25.70;99.90
10437;DHT22;5265;50.006;9.202;2022-08-01T11:34:12;25.80;99.90
10437;DHT22;5265;50.006;9.202;2022-08-01T11:36:39;25.70;99.90
10437;DHT22;5265;50.006;9.202;2022-08-01T11:39:14;25.90;99.90
10437;DHT22;5265;50.006;9.202;2022-08-01T11:41:42;26.00;99.90
10437;DHT22;5265;50.006;9.202;2022-08-01T11:44:10;26.00;99.90
10437;DHT22;5265;50.006;9.202;2022-08-01T11:46:50;26.30;99.90
10437;DHT22;5265;50.006;9.202;2022-08-01T11:49:35;26.00;99.90
10437;DHT22;5265;50.006;9.202;2022-08-01T11:54:40;25.90;99.90
10437;DHT22;5265;50.006;9.202;2022-08-01T11:57:08;25.90;99.90
10437;DHT22;5265;50.006;9.202;2022-08-01T11:59:37;25.70;99.90
10437;DHT22;5265;50.006;9.202;2022-08-01T12:02:04;25.80;99.90
10437;DHT22;5265;50.006;9.202;2022-08-01T12:04:45;26.10;99.90
